createdAt,value
2024-03-28T00:01:18.090Z,12.20
2024-03-28T00:04:55.736Z,12.19
2024-03-28T00:08:33.847Z,12.18
2024-03-28T00:12:11.254Z,12.19
2024-03-28T00:15:57.902Z,12.18
2024-03-28T00:19:39.189Z,12.15
2024-03-28T00:23:14.840Z,12.12
2024-03-28T00:26:56.073Z,12.07
2024-03-28T00:30:31.960Z,12.02
2024-03-28T00:34:12.233Z,11.96
2024-03-28T00:37:53.574Z,11.89
2024-03-28T00:41:31.164Z,11.82
2024-03-28T00:45:09.384Z,11.76
2024-03-28T00:48:44.550Z,11.77
2024-03-28T00:52:26.170Z,11.91
2024-03-28T00:56:01.902Z,12.08
2024-03-28T00:59:43.479Z,12.24
2024-03-28T01:03:18.943Z,12.37
2024-03-28T01:06:58.171Z,12.53
2024-03-28T01:10:39.709Z,12.69
2024-03-28T01:14:17.287Z,12.86
2024-03-28T01:17:54.929Z,12.96
2024-03-28T01:21:32.634Z,13.07
2024-03-28T01:25:10.772Z,13.18
2024-03-28T01:28:48.230Z,13.31
2024-03-28T01:32:23.764Z,13.43
2024-03-28T01:36:06.977Z,13.56
2024-03-28T01:39:41.310Z,13.68
2024-03-28T01:43:22.670Z,13.78
2024-03-28T01:47:17.416Z,13.85
2024-03-28T01:51:00.759Z,13.88
2024-03-28T01:54:40.534Z,13.87
2024-03-28T01:58:18.970Z,13.85
2024-03-28T02:01:55.135Z,13.83
2024-03-28T02:05:31.531Z,13.80
2024-03-28T02:09:10.385Z,13.76
2024-03-28T02:12:52.027Z,13.72
2024-03-28T02:16:36.203Z,13.69
2024-03-28T02:20:08.922Z,13.68
2024-03-28T02:23:42.984Z,13.68
2024-03-28T02:27:24.196Z,13.72
2024-03-28T02:31:03.001Z,13.76
2024-03-28T02:34:58.705Z,13.80
2024-03-28T02:38:17.601Z,13.79
2024-03-28T02:41:55.245Z,13.78
2024-03-28T02:45:32.838Z,13.77
2024-03-28T02:49:14.682Z,13.76
2024-03-28T02:52:48.221Z,13.76
2024-03-28T02:56:26.124Z,13.78
2024-03-28T03:00:04.567Z,13.79
2024-03-28T03:03:39.509Z,13.81
2024-03-28T03:07:20.832Z,13.80
2024-03-28T03:10:56.524Z,13.80
2024-03-28T03:14:37.729Z,13.79
2024-03-28T03:18:15.674Z,13.73
2024-03-28T03:21:53.576Z,13.58
2024-03-28T03:25:42.736Z,13.43
2024-03-28T03:29:27.512Z,13.33
2024-03-28T03:33:24.421Z,13.28
2024-03-28T03:36:24.048Z,13.21
2024-03-28T03:40:02.237Z,13.17
2024-03-28T03:43:38.132Z,13.16
2024-03-28T03:47:17.389Z,13.15
2024-03-28T03:50:58.091Z,13.16
2024-03-28T03:54:40.558Z,13.18
2024-03-28T03:58:15.165Z,13.19
2024-03-28T04:01:54.381Z,13.19
2024-03-28T04:05:35.138Z,13.19
2024-03-28T04:09:14.742Z,13.18
2024-03-28T04:12:57.887Z,13.16
2024-03-28T04:16:34.385Z,13.14
2024-03-28T04:20:12.416Z,13.14
2024-03-28T04:23:47.740Z,13.16
2024-03-28T04:27:29.373Z,13.16
2024-03-28T04:31:04.911Z,13.18
2024-03-28T04:34:44.252Z,13.20
2024-03-28T04:38:23.728Z,13.26
2024-03-28T04:42:05.157Z,13.37
2024-03-28T04:45:40.779Z,13.47
2024-03-28T04:49:22.335Z,13.58
2024-03-28T04:52:57.977Z,13.67
2024-03-28T04:56:41.850Z,13.74
2024-03-28T05:04:31.694Z,13.83
2024-03-28T05:08:13.885Z,13.84
2024-03-28T05:11:50.322Z,13.85
2024-03-28T05:15:29.803Z,13.86
2024-03-28T05:19:09.075Z,13.86
2024-03-28T05:22:50.589Z,13.87
2024-03-28T05:26:27.988Z,13.87
2024-03-28T05:30:06.429Z,13.86
2024-03-28T05:33:41.736Z,13.85
2024-03-28T05:37:23.744Z,13.85
2024-03-28T05:40:58.964Z,13.86
2024-03-28T05:44:42.997Z,13.87
2024-03-28T05:48:16.587Z,13.89
2024-03-28T05:52:02.236Z,13.94
2024-03-28T05:55:36.595Z,13.98
2024-03-28T05:59:11.960Z,14.00
2024-03-28T06:03:07.178Z,14.00
2024-03-28T09:02:50.826Z,15.12
2024-03-28T09:05:41.060Z,15.08
2024-03-28T09:09:19.490Z,14.87
2024-03-28T09:12:56.596Z,14.75
2024-03-28T09:16:35.699Z,14.62
2024-03-28T09:20:14.662Z,14.53
2024-03-28T09:23:49.636Z,14.51
2024-03-28T09:27:30.814Z,14.51
2024-03-28T09:31:07.259Z,14.43
2024-03-28T09:34:42.661Z,14.40
2024-03-28T09:38:20.626Z,14.41
2024-03-28T09:42:02.614Z,14.43
2024-03-28T09:45:36.533Z,14.55
2024-03-28T09:49:14.116Z,14.75
2024-03-28T09:52:56.228Z,15.05
2024-03-28T09:56:38.876Z,15.45
2024-03-28T10:00:14.107Z,15.94
2024-03-28T10:04:01.305Z,16.19
2024-03-28T10:07:33.887Z,16.31
2024-03-28T10:11:12.081Z,16.42
2024-03-28T10:14:56.046Z,16.36
2024-03-28T10:18:26.495Z,16.44
2024-03-28T10:22:23.146Z,16.56
2024-03-28T10:25:42.009Z,16.59
2024-03-28T10:29:20.197Z,16.64
2024-03-28T10:33:05.281Z,16.71
2024-03-28T10:36:49.359Z,16.72
2024-03-28T10:40:33.124Z,16.51
2024-03-28T10:44:10.967Z,16.25
2024-03-28T10:47:44.911Z,16.19
2024-03-28T10:51:24.334Z,16.05
2024-03-28T10:55:45.923Z,16.05
2024-03-28T10:58:44.792Z,16.16
2024-03-28T11:02:23.279Z,16.30
2024-03-28T11:05:59.947Z,16.48
2024-03-28T11:09:35.372Z,16.74
2024-03-28T11:13:15.089Z,17.01
2024-03-28T11:17:06.724Z,16.94
2024-03-28T11:20:32.572Z,17.07
2024-03-28T11:24:20.679Z,17.38
2024-03-28T11:28:03.461Z,17.56
2024-03-28T11:31:45.229Z,17.58
2024-03-28T11:35:11.358Z,17.57
2024-03-28T11:38:45.002Z,17.35
2024-03-28T13:15:34.734Z,17.98
2024-03-28T13:18:24.114Z,17.98
2024-03-28T13:22:02.228Z,17.77
2024-03-28T13:25:51.536Z,17.57
2024-03-28T13:29:16.753Z,17.52
2024-03-28T13:32:56.049Z,17.51
2024-03-28T13:36:39.104Z,17.45
2024-03-28T13:40:15.210Z,17.39
2024-03-28T13:43:51.087Z,17.27
2024-03-28T13:47:32.949Z,17.24
2024-03-28T13:51:10.873Z,17.24
2024-03-28T13:54:48.242Z,17.16
2024-03-28T13:58:26.179Z,17.17
2024-03-28T14:02:02.696Z,17.29
2024-03-28T14:05:44.692Z,17.45
2024-03-28T14:09:21.724Z,17.52
2024-03-28T14:12:59.831Z,17.49
2024-03-28T14:16:35.714Z,17.51
2024-03-28T14:20:19.329Z,17.53
2024-03-28T14:29:14.072Z,17.43
2024-03-28T14:32:55.465Z,17.33
2024-03-28T14:36:31.419Z,17.25
2024-03-28T14:40:14.058Z,17.20
2024-03-28T14:43:50.878Z,17.09
2024-03-28T14:47:28.376Z,16.98
2024-03-28T14:51:08.844Z,16.99
2024-03-28T14:54:49.190Z,17.04
2024-03-28T14:58:24.059Z,17.09
2024-03-28T15:02:12.243Z,17.16
2024-03-28T15:05:57.468Z,17.21
2024-03-28T15:09:27.525Z,17.26
2024-03-28T15:13:05.323Z,17.29
2024-03-28T15:16:42.934Z,17.31
2024-03-28T15:20:33.844Z,17.30
2024-03-28T15:23:58.265Z,17.16
2024-03-28T15:27:36.168Z,16.98
2024-03-28T15:31:11.801Z,16.75
2024-03-28T15:34:55.284Z,16.63
2024-03-28T15:38:30.858Z,16.51
2024-03-28T15:42:09.003Z,16.39
2024-03-28T15:45:47.195Z,16.25
2024-03-28T15:49:25.894Z,16.12
2024-03-28T15:53:01.871Z,15.99
2024-03-28T15:56:41.050Z,15.88
2024-03-28T16:00:15.495Z,15.78
2024-03-28T16:03:57.827Z,15.70
2024-03-28T16:07:32.689Z,15.64
2024-03-28T16:11:15.360Z,15.58
2024-03-28T16:14:54.885Z,15.49
2024-03-28T16:18:32.088Z,15.38
2024-03-28T16:22:07.713Z,15.25
2024-03-28T16:25:43.364Z,15.08
2024-03-28T16:29:25.285Z,14.90
2024-03-28T16:33:02.587Z,14.74
2024-03-28T16:36:40.501Z,14.55
2024-03-28T17:04:34.595Z,14.23
2024-03-28T17:07:22.234Z,14.05
2024-03-28T17:11:01.164Z,13.79
2024-03-28T17:14:37.726Z,13.59
2024-03-28T17:18:19.433Z,13.44
2024-03-28T17:21:57.270Z,13.30
2024-03-28T17:25:37.729Z,13.15
2024-03-28T17:29:07.193Z,13.06
2024-03-28T17:32:46.763Z,12.90
2024-03-28T17:36:28.279Z,12.80
2024-03-28T17:50:33.404Z,12.85
2024-03-28T17:53:22.160Z,12.84
2024-03-28T17:57:00.697Z,12.73
2024-03-28T18:00:44.347Z,12.63
2024-03-28T18:04:16.897Z,12.55
2024-03-28T18:07:56.557Z,12.48
2024-03-28T18:11:31.393Z,12.41
2024-03-28T18:15:08.611Z,12.35
2024-03-28T18:18:44.553Z,12.31
2024-03-28T18:22:32.885Z,12.29
2024-03-28T18:26:07.050Z,12.26
2024-03-28T18:29:41.454Z,12.22
2024-03-28T18:33:23.634Z,12.21
2024-03-28T18:36:56.966Z,12.19
2024-03-28T18:40:34.784Z,12.18
2024-03-28T18:44:12.125Z,12.17
2024-03-28T18:47:47.960Z,12.15
2024-03-28T18:51:29.683Z,12.14
2024-03-28T18:55:08.132Z,12.10
2024-03-28T18:58:45.024Z,12.09
2024-03-28T19:02:22.594Z,12.06
2024-03-28T19:05:58.841Z,12.02
2024-03-28T19:09:38.605Z,12.00
2024-03-28T19:13:18.284Z,11.96
2024-03-28T19:17:00.078Z,11.88
2024-03-28T19:20:46.407Z,11.83
2024-03-28T19:24:13.384Z,11.80
2024-03-28T19:27:52.719Z,11.78
2024-03-28T19:31:36.575Z,11.77
2024-03-28T19:35:10.068Z,11.73
2024-03-28T19:38:52.395Z,11.72
2024-03-28T19:42:31.524Z,11.71
2024-03-28T19:46:14.352Z,11.69
2024-03-28T19:49:50.471Z,11.67
2024-03-28T19:53:33.254Z,11.65
2024-03-28T19:57:10.374Z,11.63
2024-03-28T20:00:48.183Z,11.61
2024-03-28T20:04:25.878Z,11.61
2024-03-28T20:08:06.955Z,11.58
2024-03-28T20:11:41.096Z,11.54
2024-03-28T20:15:17.003Z,11.51
2024-03-28T20:18:58.547Z,11.48
2024-03-28T20:22:36.317Z,11.44
2024-03-28T20:26:13.788Z,11.39
2024-03-28T20:29:52.086Z,11.35
2024-03-28T20:33:29.396Z,11.31
2024-03-28T20:37:11.778Z,11.27
2024-03-28T20:40:53.758Z,11.23
2024-03-28T20:44:36.456Z,11.19
2024-03-28T20:48:13.120Z,11.14
2024-03-28T20:51:48.846Z,11.10
2024-03-28T20:55:30.708Z,11.07
2024-03-28T20:59:06.302Z,11.04
2024-03-28T21:03:09.101Z,11.04
2024-03-28T21:06:44.423Z,10.99
2024-03-28T21:10:22.191Z,10.93
2024-03-28T21:13:41.810Z,10.89
2024-03-28T21:17:19.352Z,10.85
2024-03-28T21:20:57.569Z,10.80
2024-03-28T21:24:34.452Z,10.77
2024-03-28T21:28:09.886Z,10.74
2024-03-28T21:31:49.573Z,10.69
2024-03-28T21:35:29.299Z,10.67
2024-03-28T21:39:11.259Z,10.65
2024-03-28T21:42:52.950Z,10.62
2024-03-28T21:46:30.684Z,10.59
2024-03-28T21:50:08.819Z,10.57
2024-03-28T21:53:51.051Z,10.54
2024-03-28T21:57:27.669Z,10.53
2024-03-28T22:01:09.338Z,10.50
2024-03-28T22:04:49.386Z,10.47
2024-03-28T22:08:35.874Z,10.43
2024-03-28T22:12:11.868Z,10.41
2024-03-28T22:15:46.482Z,10.37
2024-03-28T22:19:26.855Z,10.33
2024-03-28T22:23:08.219Z,10.29
2024-03-28T22:26:44.839Z,10.26
2024-03-28T22:30:26.238Z,10.21
2024-03-28T22:34:04.016Z,10.15
2024-03-28T22:37:43.837Z,10.06
2024-03-28T22:41:19.470Z,9.97
2024-03-28T22:44:57.456Z,9.87
2024-03-28T22:48:34.985Z,9.78
2024-03-28T22:52:13.594Z,9.70
2024-03-28T22:55:57.785Z,9.63
2024-03-28T22:59:28.328Z,9.54
2024-03-28T23:03:06.000Z,9.47
2024-03-28T23:06:47.329Z,9.42
2024-03-28T23:10:21.268Z,9.35
2024-03-28T23:13:59.022Z,9.31
2024-03-28T23:17:36.636Z,9.25
2024-03-28T23:21:12.532Z,9.19
2024-03-28T23:24:54.111Z,9.12
2024-03-28T23:28:29.770Z,9.06
2024-03-28T23:32:12.163Z,8.99
2024-03-28T23:35:49.045Z,8.93
2024-03-28T23:39:27.384Z,8.86
2024-03-28T23:43:02.477Z,8.79
2024-03-28T23:46:45.287Z,8.73
2024-03-28T23:50:19.771Z,8.68
2024-03-28T23:53:59.259Z,8.65
2024-03-28T23:57:38.582Z,8.63
